createdAt,value
2018-11-12T00:01:48.747Z,10.40
2018-11-12T00:06:50.854Z,10.31
2018-11-12T00:11:53.046Z,10.34
2018-11-12T00:16:55.166Z,10.27
2018-11-12T00:21:57.339Z,10.35
2018-11-12T00:26:59.382Z,10.31
2018-11-12T00:32:01.523Z,10.32
2018-11-12T00:37:03.914Z,10.35
2018-11-12T00:42:06.051Z,10.32
2018-11-12T00:47:08.164Z,10.21
2018-11-12T00:52:10.283Z,10.21
2018-11-12T00:57:12.434Z,10.22
2018-11-12T01:02:14.559Z,10.30
2018-11-12T01:07:16.701Z,10.30
2018-11-12T01:12:18.893Z,10.32
2018-11-12T01:17:21.090Z,10.29
2018-11-12T01:22:23.206Z,10.33
2018-11-12T01:27:25.312Z,10.32
2018-11-12T01:32:27.478Z,10.24
2018-11-12T01:37:29.569Z,10.11
2018-11-12T01:42:31.842Z,10.21
2018-11-12T01:47:33.979Z,10.10
2018-11-12T01:52:36.085Z,10.28
2018-11-12T01:57:38.199Z,10.18
2018-11-12T02:02:40.718Z,10.12
2018-11-12T02:07:42.871Z,10.22
2018-11-12T02:12:44.982Z,10.06
2018-11-12T02:17:47.641Z,10.14
2018-11-12T02:22:50.182Z,10.03
2018-11-12T02:27:52.300Z,9.93
2018-11-12T02:32:54.401Z,10.08
2018-11-12T02:37:56.505Z,10.06
2018-11-12T02:42:58.628Z,10.00
2018-11-12T02:48:00.723Z,9.97
2018-11-12T02:53:02.839Z,9.84
2018-11-12T02:58:05.018Z,9.96
2018-11-12T03:03:07.154Z,9.97
2018-11-12T03:08:09.247Z,10.06
2018-11-12T03:13:11.372Z,10.02
2018-11-12T03:18:13.460Z,10.05
2018-11-12T03:23:15.594Z,9.97
2018-11-12T03:28:17.705Z,10.02
2018-11-12T03:33:19.813Z,10.12
2018-11-12T03:38:22.799Z,10.17
2018-11-12T03:43:24.943Z,10.12
2018-11-12T03:48:27.062Z,9.87
2018-11-12T03:53:29.175Z,9.91
2018-11-12T03:58:31.278Z,9.93
2018-11-12T04:03:33.405Z,10.00
2018-11-12T04:08:35.508Z,9.86
2018-11-12T04:13:37.616Z,9.71
2018-11-12T04:18:39.742Z,9.78
2018-11-12T04:23:41.845Z,9.70
2018-11-12T04:28:43.963Z,9.73
2018-11-12T04:33:46.095Z,9.79
2018-11-12T04:38:48.216Z,9.65
2018-11-12T04:43:50.423Z,9.73
2018-11-12T04:48:52.551Z,9.54
2018-11-12T04:53:54.812Z,9.74
2018-11-12T04:58:56.951Z,9.87
2018-11-12T05:03:59.098Z,10.00
2018-11-12T05:09:01.245Z,10.10
2018-11-12T05:14:03.458Z,10.11
2018-11-12T05:19:05.636Z,10.17
2018-11-12T05:24:07.799Z,10.21
2018-11-12T05:29:09.952Z,10.22
2018-11-12T05:34:12.039Z,10.16
2018-11-12T05:39:14.150Z,10.05
2018-11-12T05:44:19.574Z,10.14
2018-11-12T05:49:21.672Z,10.03
2018-11-12T05:54:23.836Z,10.13
2018-11-12T05:59:25.950Z,10.16
2018-11-12T06:04:28.338Z,9.97
2018-11-12T06:09:30.439Z,9.98
2018-11-12T06:14:32.538Z,10.03
2018-11-12T06:19:35.092Z,9.85
2018-11-12T06:24:37.182Z,9.92
2018-11-12T06:29:39.280Z,9.93
2018-11-12T06:34:41.366Z,9.90
2018-11-12T06:39:43.483Z,9.86
2018-11-12T06:44:45.633Z,9.83
2018-11-12T06:49:47.727Z,9.78
2018-11-12T06:54:49.837Z,9.94
2018-11-12T06:59:51.940Z,10.05
2018-11-12T07:04:54.060Z,10.06
2018-11-12T07:09:56.173Z,10.08
2018-11-12T07:14:58.254Z,10.24
2018-11-12T07:20:00.393Z,10.26
2018-11-12T07:25:02.588Z,10.23
2018-11-12T07:30:07.468Z,10.33
2018-11-12T07:35:11.199Z,10.40
2018-11-12T07:40:14.009Z,10.28
2018-11-12T07:45:17.529Z,10.25
2018-11-12T07:50:21.026Z,10.14
2018-11-12T07:55:24.463Z,10.19
2018-11-12T08:00:28.077Z,10.12
2018-11-12T08:05:30.208Z,10.15
2018-11-12T08:10:32.353Z,10.18
2018-11-12T08:15:34.509Z,10.18
2018-11-12T08:20:36.632Z,10.24
2018-11-12T08:25:38.740Z,10.47
2018-11-12T08:30:40.876Z,10.61
2018-11-12T08:35:42.971Z,10.76
2018-11-12T08:40:45.236Z,10.92
2018-11-12T08:45:47.282Z,11.00
2018-11-12T08:50:49.409Z,11.06
2018-11-12T08:55:51.529Z,11.09
2018-11-12T09:00:53.719Z,10.95
2018-11-12T09:05:55.786Z,11.06
2018-11-12T09:10:57.945Z,11.12
2018-11-12T09:16:00.087Z,10.96
2018-11-12T09:21:02.216Z,10.96
2018-11-12T09:26:04.502Z,11.19
2018-11-12T09:31:08.259Z,11.37
2018-11-12T09:36:08.710Z,11.40
2018-11-12T09:41:10.880Z,11.30
2018-11-12T09:46:13.052Z,11.51
2018-11-12T09:51:15.130Z,11.64
2018-11-12T09:56:17.231Z,11.63
2018-11-12T10:01:19.673Z,11.73
2018-11-12T10:06:23.206Z,11.57
2018-11-12T10:11:26.052Z,11.65
2018-11-12T10:16:29.192Z,11.70
2018-11-12T10:21:27.895Z,11.75
2018-11-12T10:26:30.037Z,11.76
2018-11-12T10:31:32.148Z,11.74
2018-11-12T10:36:34.298Z,11.64
2018-11-12T10:41:36.503Z,11.64
2018-11-12T10:46:39.551Z,11.62
2018-11-12T10:51:41.947Z,11.65
2018-11-12T10:56:44.115Z,11.50
2018-11-12T11:01:51.875Z,11.49
2018-11-12T11:06:54.113Z,11.55
2018-11-12T11:11:56.224Z,11.50
2018-11-12T11:16:58.335Z,11.44
2018-11-12T11:22:00.456Z,11.53
2018-11-12T11:27:02.583Z,11.54
2018-11-12T11:32:04.856Z,11.54
2018-11-12T11:37:06.957Z,11.40
2018-11-12T11:42:09.081Z,11.55
2018-11-12T11:47:11.236Z,11.54
2018-11-12T11:52:13.386Z,11.48
2018-11-12T11:57:15.779Z,11.47
2018-11-12T12:02:17.873Z,11.57
2018-11-12T12:07:19.979Z,11.57
2018-11-12T12:12:22.077Z,11.56
2018-11-12T12:17:24.214Z,11.45
2018-11-12T12:22:26.345Z,11.51
2018-11-12T12:27:28.479Z,11.65
2018-11-12T12:32:30.627Z,11.77
2018-11-12T12:37:32.799Z,11.49
2018-11-12T12:42:34.989Z,11.64
2018-11-12T12:47:37.162Z,11.80
2018-11-12T12:52:39.308Z,11.64
2018-11-12T12:57:43.626Z,11.72
2018-11-12T13:02:45.899Z,11.72
2018-11-12T13:07:48.022Z,11.75
2018-11-12T13:12:50.194Z,11.75
2018-11-12T13:17:52.546Z,11.73
2018-11-12T13:22:54.694Z,11.71
2018-11-12T13:27:56.844Z,11.80
2018-11-12T13:32:58.971Z,11.87
2018-11-12T13:38:01.071Z,11.91
2018-11-12T13:43:03.227Z,11.90
2018-11-12T13:48:05.398Z,11.94
2018-11-12T13:53:07.577Z,11.95
2018-11-12T13:58:09.685Z,11.96
2018-11-12T14:03:11.818Z,11.98
2018-11-12T14:08:14.217Z,12.01
2018-11-12T14:13:16.363Z,12.01
2018-11-12T14:18:18.492Z,11.96
2018-11-12T14:23:20.599Z,11.95
2018-11-12T14:28:23.060Z,11.92
2018-11-12T14:33:25.204Z,11.94
2018-11-12T14:38:27.319Z,11.92
2018-11-12T14:43:29.596Z,11.97
2018-11-12T14:48:31.764Z,11.98
2018-11-12T14:53:34.089Z,11.99
2018-11-12T14:58:36.242Z,12.01
2018-11-12T15:03:38.371Z,12.02
2018-11-12T15:08:40.534Z,12.04
2018-11-12T15:13:42.683Z,12.04
2018-11-12T15:18:44.807Z,12.01
2018-11-12T15:23:46.999Z,12.01
2018-11-12T15:28:49.185Z,12.04
2018-11-12T15:33:51.326Z,12.03
2018-11-12T15:38:53.451Z,12.03
2018-11-12T15:43:55.578Z,12.03
2018-11-12T15:48:57.748Z,12.00
2018-11-12T15:53:59.990Z,11.94
2018-11-12T15:59:02.159Z,11.83
2018-11-12T16:04:04.549Z,11.90
2018-11-12T16:09:09.349Z,11.95
2018-11-12T16:14:11.516Z,12.39
2018-11-12T16:19:13.741Z,12.25
2018-11-12T16:24:15.793Z,12.16
2018-11-12T16:29:17.963Z,12.29
2018-11-12T16:34:20.096Z,12.28
2018-11-12T16:39:22.232Z,12.27
2018-11-12T16:44:24.377Z,12.25
2018-11-12T16:49:26.565Z,12.17
2018-11-12T16:54:28.731Z,12.11
2018-11-12T16:59:30.871Z,12.06
2018-11-12T17:04:33.002Z,12.03
2018-11-12T17:09:35.157Z,11.88
2018-11-12T17:14:37.303Z,11.77
2018-11-12T17:19:39.482Z,11.79
2018-11-12T17:24:41.651Z,11.75
2018-11-12T17:29:43.780Z,11.66
2018-11-12T17:34:45.992Z,11.73
2018-11-12T17:39:48.166Z,11.69
2018-11-12T17:44:50.367Z,11.70
2018-11-12T17:49:52.591Z,11.63
2018-11-12T17:54:54.797Z,11.61
2018-11-12T17:59:56.989Z,11.68
2018-11-12T18:04:59.140Z,11.54
2018-11-12T18:10:01.317Z,11.62
2018-11-12T18:15:03.894Z,11.50
2018-11-12T18:20:09.748Z,11.47
2018-11-12T18:25:12.446Z,11.55
2018-11-12T18:30:24.240Z,11.42
2018-11-12T18:35:26.239Z,11.40
2018-11-12T18:40:29.247Z,11.36
2018-11-12T18:45:31.460Z,11.43
2018-11-12T18:50:33.630Z,11.28
2018-11-12T18:55:35.816Z,11.30
2018-11-12T19:00:37.980Z,11.33
2018-11-12T19:05:40.145Z,11.45
2018-11-12T19:10:42.343Z,11.39
2018-11-12T19:15:44.539Z,11.36
2018-11-12T19:20:46.775Z,11.23
2018-11-12T19:25:48.929Z,11.24
2018-11-12T19:30:51.935Z,11.30
2018-11-12T19:35:54.105Z,11.31
2018-11-12T19:40:56.339Z,11.13
2018-11-12T19:45:58.518Z,11.10
2018-11-12T19:51:00.802Z,11.26
2018-11-12T19:56:03.067Z,11.22
2018-11-12T20:01:05.485Z,11.37
2018-11-12T20:06:07.894Z,11.28
2018-11-12T20:11:10.417Z,11.22
2018-11-12T20:16:12.716Z,11.31
2018-11-12T20:21:15.172Z,11.42
2018-11-12T20:26:19.942Z,11.41
2018-11-12T20:31:24.239Z,11.32
2018-11-12T20:36:26.600Z,11.20
2018-11-12T20:41:29.556Z,11.26
2018-11-12T20:46:31.917Z,11.21
2018-11-12T20:51:34.381Z,11.32
2018-11-12T20:56:36.705Z,11.34
2018-11-12T21:01:39.200Z,11.21
2018-11-12T21:06:42.791Z,11.32
2018-11-12T21:11:45.075Z,11.22
2018-11-12T21:16:47.345Z,11.15
2018-11-12T21:21:50.166Z,11.00
2018-11-12T21:26:52.354Z,11.08
2018-11-12T21:31:54.517Z,11.09
2018-11-12T21:36:56.813Z,11.09
2018-11-12T21:41:59.019Z,11.02
2018-11-12T21:47:01.204Z,11.08
2018-11-12T21:52:03.473Z,11.35
2018-11-12T21:57:05.694Z,11.23
2018-11-12T22:02:07.843Z,11.08
2018-11-12T22:07:10.220Z,10.94
2018-11-12T22:12:12.368Z,10.75
2018-11-12T22:17:14.508Z,10.69
2018-11-12T22:22:16.641Z,10.93
2018-11-12T22:27:18.785Z,11.03
2018-11-12T22:32:21.306Z,11.00
2018-11-12T22:37:23.558Z,10.95
2018-11-12T22:42:25.690Z,11.15
2018-11-12T22:47:28.029Z,11.12
2018-11-12T22:52:30.193Z,10.94
2018-11-12T22:57:32.323Z,10.80
2018-11-12T23:02:34.463Z,10.76
2018-11-12T23:07:36.554Z,10.60
2018-11-12T23:12:38.752Z,10.56
2018-11-12T23:17:40.847Z,10.70
2018-11-12T23:22:43.735Z,10.57
2018-11-12T23:27:46.393Z,10.63
2018-11-12T23:32:48.836Z,10.59
2018-11-12T23:37:51.219Z,10.64
2018-11-12T23:42:53.377Z,10.76
2018-11-12T23:47:55.511Z,10.68
2018-11-12T23:52:57.849Z,10.52
2018-11-12T23:58:00.068Z,10.62
